Time;durP1;ratioP1;P1;durP2;ratioP2;P2;SDS_P1;SDS_P2;PMS_P1;PMS_P2;Temp;Humidity;BMP_temperature;BMP_pressure;BME280_temperature;BME280_humidity;BME280_pressure;Samples;Min_cycle;Max_cycle;Signal;HPM_P1;HPM_P2
2021/12/14 00:02:04;;;;;;;6.22;3.78;;;;;;;;;;5021958;28;20038;-81
2021/12/14 00:04:32;;;;;;;6.63;3.63;;;;;;;;;;5022754;28;20073;-78
2021/12/14 00:06:59;;;;;;;5.25;3.60;;;;;;;;;;5027005;28;20038;-84
2021/12/14 00:09:35;;;;;;;5.50;3.60;;;;;;;;;;5033127;28;20057;-82
2021/12/14 00:17:22;;;;;;;7.95;3.50;;;;;;;;;;5022086;28;20045;-79
2021/12/14 00:19:49;;;;;;;4.85;3.45;;;;;;;;;;5024463;28;20129;-83
2021/12/14 00:22:26;;;;;;;4.45;3.50;;;;;;;;;;5022538;28;20104;-79
2021/12/14 00:24:52;;;;;;;4.18;3.25;;;;;;;;;;5021363;28;20120;-79
2021/12/14 00:27:19;;;;;;;8.32;3.47;;;;;;;;;;5030649;28;20064;-82
2021/12/14 00:29:46;;;;;;;4.85;3.13;;;;;;;;;;5031027;28;20075;-83
2021/12/14 00:32:17;;;;;;;4.25;3.17;;;;;;;;;;5030997;28;20121;-83
2021/12/14 00:34:44;;;;;;;6.07;3.67;;;;;;;;;;5025154;28;20038;-84
2021/12/14 00:37:14;;;;;;;5.05;3.40;;;;;;;;;;5022487;28;20053;-80
2021/12/14 00:39:41;;;;;;;6.07;3.30;;;;;;;;;;5019600;28;20050;-79
2021/12/14 00:42:07;;;;;;;6.45;3.88;;;;;;;;;;5019201;28;20096;-78
2021/12/14 00:44:33;;;;;;;4.25;3.45;;;;;;;;;;5021445;28;20042;-81
2021/12/14 00:47:00;;;;;;;5.35;3.58;;;;;;;;;;5026278;28;20034;-82
2021/12/14 00:49:26;;;;;;;5.53;3.38;;;;;;;;;;5027637;28;20022;-81
2021/12/14 00:51:54;;;;;;;6.00;4.13;;;;;;;;;;5029013;28;20109;-84
2021/12/14 00:54:20;;;;;;;5.90;3.78;;;;;;;;;;5024837;28;20090;-83
2021/12/14 00:56:46;;;;;;;7.68;4.00;;;;;;;;;;5023010;28;20045;-84
2021/12/14 00:59:13;;;;;;;4.32;3.25;;;;;;;;;;5022979;28;20046;-83
2021/12/14 01:01:41;;;;;;;5.55;3.42;;;;;;;;;;5024060;28;20037;-83
2021/12/14 01:04:09;;;;;;;5.93;4.05;;;;;;;;;;5023042;28;20038;-83
2021/12/14 01:06:36;;;;;;;6.30;3.97;;;;;;;;;;5022703;28;20161;-83
2021/12/14 01:09:03;;;;;;;7.65;4.00;;;;;;;;;;5022975;28;20057;-83
2021/12/14 01:11:33;;;;;;;7.18;4.07;;;;;;;;;;5024130;28;20088;-84
2021/12/14 01:14:04;;;;;;;7.57;4.20;;;;;;;;;;5024637;28;20052;-82
2021/12/14 01:16:47;;;;;;;6.00;4.13;;;;;;;;;;5021592;28;20104;-80
2021/12/14 01:19:16;;;;;;;6.10;4.47;;;;;;;;;;5022280;28;20446;-80
2021/12/14 01:25:03;;;;;;;8.07;4.15;;;;;;;;;;5018898;28;20041;-80
2021/12/14 01:27:11;;;;;;;5.25;3.88;;;;;;;;;;5017369;28;20045;-82
2021/12/14 01:29:37;;;;;;;5.20;3.72;;;;;;;;;;5023686;28;20042;-82
2021/12/14 01:32:04;;;;;;;7.28;4.22;;;;;;;;;;5024043;28;20046;-79
2021/12/14 01:34:31;;;;;;;6.00;4.35;;;;;;;;;;5024818;28;20120;-79
2021/12/14 01:37:01;;;;;;;9.07;5.03;;;;;;;;;;5035281;28;20049;-79
2021/12/14 01:41:58;;;;;;;6.60;4.22;;;;;;;;;;5023903;28;20037;-84
2021/12/14 01:44:25;;;;;;;9.88;5.00;;;;;;;;;;5024569;28;20064;-83
2021/12/14 01:46:53;;;;;;;7.10;4.35;;;;;;;;;;5026463;28;20038;-84
2021/12/14 01:49:19;;;;;;;8.20;4.75;;;;;;;;;;5025663;28;20057;-83
2021/12/14 01:51:47;;;;;;;6.18;4.57;;;;;;;;;;5023794;28;20042;-79
2021/12/14 01:54:14;;;;;;;8.10;4.85;;;;;;;;;;5017648;28;20037;-79
2021/12/14 01:56:40;;;;;;;7.20;5.05;;;;;;;;;;5021667;28;20049;-86
2021/12/14 01:59:10;;;;;;;7.68;4.63;;;;;;;;;;5023095;28;20045;-83
2021/12/14 02:01:45;;;;;;;9.18;5.22;;;;;;;;;;5022884;28;20048;-84
2021/12/14 02:04:16;;;;;;;6.95;4.95;;;;;;;;;;5022831;28;20038;-84
2021/12/14 02:06:42;;;;;;;9.27;5.20;;;;;;;;;;5022929;28;20064;-83
2021/12/14 02:09:12;;;;;;;9.10;5.43;;;;;;;;;;5021909;28;20080;-84
2021/12/14 02:11:40;;;;;;;6.07;4.50;;;;;;;;;;5020161;28;20038;-84
2021/12/14 02:14:06;;;;;;;8.90;5.47;;;;;;;;;;5017406;28;20030;-82
2021/12/14 02:16:32;;;;;;;7.97;5.22;;;;;;;;;;5021894;28;20034;-84
2021/12/14 02:19:00;;;;;;;9.15;5.90;;;;;;;;;;5027573;28;20041;-84
2021/12/14 02:21:26;;;;;;;7.22;4.95;;;;;;;;;;5018812;28;20373;-84
2021/12/14 02:23:52;;;;;;;10.18;5.70;;;;;;;;;;5023580;28;20057;-80
2021/12/14 02:26:20;;;;;;;9.40;6.53;;;;;;;;;;5038241;28;20026;-79
2021/12/14 02:28:46;;;;;;;9.50;6.22;;;;;;;;;;5025472;28;20069;-81
2021/12/14 02:31:13;;;;;;;10.88;6.70;;;;;;;;;;5017713;28;20038;-79
2021/12/14 02:33:39;;;;;;;8.05;6.38;;;;;;;;;;5017262;28;20042;-78
2021/12/14 02:36:07;;;;;;;9.45;6.78;;;;;;;;;;5018222;28;20049;-79
2021/12/14 02:38:33;;;;;;;11.77;7.30;;;;;;;;;;5016886;28;20101;-78
2021/12/14 02:41:01;;;;;;;10.93;7.32;;;;;;;;;;5016608;28;20458;-78
2021/12/14 02:43:38;;;;;;;11.95;6.97;;;;;;;;;;5018134;28;20038;-78
2021/12/14 02:46:06;;;;;;;11.73;7.68;;;;;;;;;;5020758;28;20041;-80
2021/12/14 02:48:32;;;;;;;11.27;7.63;;;;;;;;;;5016395;28;20041;-77
2021/12/14 02:51:05;;;;;;;12.32;7.65;;;;;;;;;;5015288;28;20128;-78
2021/12/14 02:53:31;;;;;;;9.82;6.18;;;;;;;;;;5016546;28;20497;-79
2021/12/14 02:55:57;;;;;;;13.70;9.15;;;;;;;;;;5020185;28;20046;-78
2021/12/14 02:58:23;;;;;;;10.93;7.80;;;;;;;;;;5019252;28;20041;-79
2021/12/14 03:00:50;;;;;;;14.20;8.77;;;;;;;;;;5019774;28;20513;-79
2021/12/14 03:03:16;;;;;;;16.95;8.80;;;;;;;;;;5022421;28;20042;-82
2021/12/14 03:05:42;;;;;;;13.82;9.38;;;;;;;;;;5022625;28;20042;-80
2021/12/14 03:08:14;;;;;;;14.18;9.82;;;;;;;;;;5022823;28;20048;-82
2021/12/14 03:13:44;;;;;;;17.02;9.65;;;;;;;;;;5034937;28;20050;-79
2021/12/14 03:16:18;;;;;;;14.38;10.13;;;;;;;;;;5038702;28;20370;-79
2021/12/14 03:18:44;;;;;;;15.80;10.70;;;;;;;;;;5021448;28;20072;-79
2021/12/14 03:21:12;;;;;;;17.40;10.93;;;;;;;;;;5020945;28;20489;-80
2021/12/14 03:23:42;;;;;;;18.80;11.15;;;;;;;;;;5020783;28;20188;-79
2021/12/14 03:26:09;;;;;;;19.50;10.75;;;;;;;;;;5020202;28;20034;-79
2021/12/14 03:28:35;;;;;;;16.45;11.48;;;;;;;;;;5021962;28;20045;-78
2021/12/14 03:31:03;;;;;;;16.40;11.65;;;;;;;;;;5022638;28;20045;-83
2021/12/14 03:33:31;;;;;;;19.25;12.65;;;;;;;;;;5027777;28;20081;-82
2021/12/14 03:35:58;;;;;;;18.50;12.60;;;;;;;;;;5022916;28;20041;-81
2021/12/14 03:38:25;;;;;;;18.45;12.65;;;;;;;;;;5023164;28;20346;-81
2021/12/14 03:40:59;;;;;;;19.70;12.65;;;;;;;;;;5021223;28;20042;-80
2021/12/14 03:43:26;;;;;;;24.90;13.98;;;;;;;;;;5021618;28;20042;-78
2021/12/14 03:45:52;;;;;;;20.35;13.60;;;;;;;;;;5020495;28;20042;-79
2021/12/14 03:48:20;;;;;;;20.83;13.60;;;;;;;;;;5024125;28;20072;-80
2021/12/14 03:50:46;;;;;;;20.60;12.35;;;;;;;;;;5021692;28;20132;-79
2021/12/14 03:53:12;;;;;;;21.88;13.57;;;;;;;;;;5020500;28;20044;-79
2021/12/14 03:55:42;;;;;;;23.85;13.48;;;;;;;;;;5021516;28;20045;-79
2021/12/14 03:58:09;;;;;;;20.33;13.57;;;;;;;;;;5021402;28;20046;-79
2021/12/14 04:00:38;;;;;;;20.90;13.73;;;;;;;;;;5027469;28;20125;-80
2021/12/14 04:03:05;;;;;;;27.88;14.27;;;;;;;;;;5038479;28;20033;-79
2021/12/14 04:05:33;;;;;;;20.90;13.68;;;;;;;;;;5029485;28;20042;-79
2021/12/14 04:07:59;;;;;;;22.67;14.30;;;;;;;;;;5019728;28;20089;-80
2021/12/14 04:10:26;;;;;;;23.90;13.93;;;;;;;;;;5022447;28;20076;-80
2021/12/14 04:12:53;;;;;;;21.02;14.70;;;;;;;;;;5025784;28;20082;-78
2021/12/14 04:15:18;;;;;;;26.13;15.30;;;;;;;;;;5031502;28;20042;-80
2021/12/14 04:17:44;;;;;;;30.42;14.88;;;;;;;;;;5028933;28;20501;-83
2021/12/14 04:20:12;;;;;;;27.20;15.63;;;;;;;;;;5023328;28;20060;-84
2021/12/14 04:22:38;;;;;;;21.02;14.70;;;;;;;;;;5023173;28;20041;-84
2021/12/14 04:25:06;;;;;;;24.23;16.60;;;;;;;;;;5022931;28;20520;-84
2021/12/14 04:27:32;;;;;;;28.75;16.52;;;;;;;;;;5022442;28;20374;-84
2021/12/14 04:30:00;;;;;;;30.50;16.73;;;;;;;;;;5021567;28;20406;-79
2021/12/14 04:32:26;;;;;;;25.10;16.35;;;;;;;;;;5019038;28;20362;-84
2021/12/14 04:34:54;;;;;;;26.50;16.80;;;;;;;;;;5025116;28;20050;-83
2021/12/14 04:37:20;;;;;;;28.50;17.70;;;;;;;;;;5020075;28;20046;-79
2021/12/14 04:39:52;;;;;;;25.27;16.50;;;;;;;;;;5021774;28;20045;-84
2021/12/14 04:53:21;;;;;;;24.05;16.50;;;;;;;;;;5021402;28;20034;-80
2021/12/14 04:55:47;;;;;;;24.63;16.42;;;;;;;;;;5021989;28;20057;-81
2021/12/14 04:58:13;;;;;;;25.50;17.08;;;;;;;;;;5020022;28;20045;-80
2021/12/14 05:00:42;;;;;;;24.85;16.73;;;;;;;;;;5019297;28;20751;-80
2021/12/14 05:03:14;;;;;;;26.55;17.73;;;;;;;;;;5018828;28;20068;-78
2021/12/14 05:05:48;;;;;;;32.17;19.02;;;;;;;;;;5025759;28;20093;-82
2021/12/14 05:11:07;;;;;;;29.77;21.45;;;;;;;;;;5025404;28;20110;-82
2021/12/14 05:13:36;;;;;;;32.45;21.65;;;;;;;;;;5020607;28;20457;-83
2021/12/14 05:16:03;;;;;;;34.28;21.52;;;;;;;;;;5023140;28;20073;-84
2021/12/14 05:18:29;;;;;;;35.20;22.25;;;;;;;;;;5019244;28;20061;-80
2021/12/14 05:20:55;;;;;;;43.00;22.63;;;;;;;;;;5019810;28;20354;-82
2021/12/14 05:23:22;;;;;;;33.30;22.58;;;;;;;;;;5020464;28;20042;-83
2021/12/14 05:25:48;;;;;;;37.55;23.02;;;;;;;;;;5021366;28;20067;-82
2021/12/14 05:28:16;;;;;;;36.55;23.52;;;;;;;;;;5021240;28;20037;-82
2021/12/14 05:30:43;;;;;;;36.72;24.25;;;;;;;;;;5021878;28;20121;-82
2021/12/14 05:33:11;;;;;;;39.33;23.38;;;;;;;;;;5021471;28;20046;-82
2021/12/14 05:35:37;;;;;;;34.88;23.90;;;;;;;;;;5021452;28;20116;-81
2021/12/14 05:38:05;;;;;;;34.90;23.98;;;;;;;;;;5021192;28;20116;-81
2021/12/14 05:43:06;;;;;;;37.40;25.33;;;;;;;;;;5024376;28;20093;-81
2021/12/14 05:45:33;;;;;;;39.85;26.10;;;;;;;;;;5023456;28;20038;-81
2021/12/14 05:47:59;;;;;;;41.88;27.77;;;;;;;;;;5022672;28;20737;-81
2021/12/14 05:50:26;;;;;;;42.40;26.17;;;;;;;;;;5021085;28;20042;-82
2021/12/14 05:52:52;;;;;;;45.33;26.70;;;;;;;;;;5022408;28;20088;-83
2021/12/14 05:55:24;;;;;;;37.88;25.27;;;;;;;;;;5025224;28;20354;-82
2021/12/14 05:57:50;;;;;;;37.78;25.95;;;;;;;;;;5026956;28;20068;-82
2021/12/14 06:00:16;;;;;;;36.10;24.05;;;;;;;;;;5028220;28;20050;-82
2021/12/14 06:02:42;;;;;;;34.47;22.95;;;;;;;;;;5028764;28;20056;-83
2021/12/14 06:05:12;;;;;;;38.25;23.77;;;;;;;;;;5028635;28;20148;-82
2021/12/14 06:07:38;;;;;;;31.35;22.20;;;;;;;;;;5029767;28;20037;-82
2021/12/14 06:10:05;;;;;;;30.60;20.35;;;;;;;;;;5029086;28;20044;-83
2021/12/14 06:12:32;;;;;;;28.52;19.67;;;;;;;;;;5021625;28;20049;-81
2021/12/14 06:14:59;;;;;;;34.17;20.08;;;;;;;;;;5019978;28;20046;-81
2021/12/14 06:17:29;;;;;;;33.65;20.15;;;;;;;;;;5019733;28;20038;-82
2021/12/14 06:20:06;;;;;;;25.88;18.35;;;;;;;;;;5020295;28;20045;-82
2021/12/14 06:22:33;;;;;;;30.58;20.23;;;;;;;;;;5020434;28;20048;-83
2021/12/14 06:25:05;;;;;;;30.50;19.83;;;;;;;;;;5022056;28;20077;-82
2021/12/14 06:27:31;;;;;;;27.92;18.63;;;;;;;;;;5019829;28;20038;-82
2021/12/14 06:30:01;;;;;;;26.63;18.02;;;;;;;;;;5021942;28;20048;-82
2021/12/14 06:32:27;;;;;;;28.27;19.27;;;;;;;;;;5026241;28;20041;-81
2021/12/14 06:34:58;;;;;;;27.98;18.75;;;;;;;;;;5027367;28;20042;-82
2021/12/14 06:40:18;;;;;;;29.23;19.38;;;;;;;;;;5026210;28;20042;-82
2021/12/14 06:42:48;;;;;;;26.25;18.17;;;;;;;;;;5027029;28;20175;-82
2021/12/14 06:45:19;;;;;;;26.77;18.50;;;;;;;;;;5027094;28;20083;-81
2021/12/14 06:47:45;;;;;;;25.30;18.08;;;;;;;;;;5027396;28;20037;-82
2021/12/14 06:50:12;;;;;;;29.58;18.92;;;;;;;;;;5029603;28;20093;-81
2021/12/14 06:52:38;;;;;;;29.65;19.50;;;;;;;;;;5028682;28;20045;-79
2021/12/14 06:55:05;;;;;;;31.02;18.58;;;;;;;;;;5026779;28;20041;-83
2021/12/14 06:57:31;;;;;;;32.28;19.60;;;;;;;;;;5026925;28;20105;-82
2021/12/14 06:59:57;;;;;;;30.50;19.42;;;;;;;;;;5026523;28;20077;-82
2021/12/14 07:02:23;;;;;;;29.40;19.13;;;;;;;;;;5025114;28;20060;-82
2021/12/14 07:04:51;;;;;;;30.45;19.38;;;;;;;;;;5027744;28;20456;-82
2021/12/14 07:07:19;;;;;;;32.00;19.23;;;;;;;;;;5024087;28;20441;-82
2021/12/14 07:09:52;;;;;;;33.42;20.75;;;;;;;;;;5025283;28;20042;-83
2021/12/14 07:12:22;;;;;;;30.67;18.83;;;;;;;;;;5025480;28;20041;-80
2021/12/14 07:14:53;;;;;;;29.63;19.35;;;;;;;;;;5025678;28;20069;-82
2021/12/14 07:17:42;;;;;;;26.10;18.88;;;;;;;;;;5027382;28;20069;-82
2021/12/14 07:20:18;;;;;;;31.52;20.27;;;;;;;;;;5025797;28;20049;-82
2021/12/14 07:22:45;;;;;;;34.42;21.98;;;;;;;;;;5026414;28;20121;-82
2021/12/14 07:25:31;;;;;;;34.38;21.67;;;;;;;;;;5027607;28;20095;-82
2021/12/14 07:27:58;;;;;;;34.20;22.52;;;;;;;;;;5028389;28;20038;-82
2021/12/14 07:30:27;;;;;;;35.75;21.50;;;;;;;;;;5026009;28;20046;-81
2021/12/14 07:32:54;;;;;;;32.25;21.88;;;;;;;;;;5025770;28;20097;-79
2021/12/14 07:35:34;;;;;;;33.42;21.38;;;;;;;;;;5025369;28;20051;-80
2021/12/14 07:38:02;;;;;;;34.85;21.42;;;;;;;;;;5025619;28;20045;-81
2021/12/14 07:40:36;;;;;;;30.83;20.60;;;;;;;;;;5024709;28;20126;-82
2021/12/14 07:43:13;;;;;;;34.72;22.13;;;;;;;;;;5021600;28;20048;-81
2021/12/14 07:45:39;;;;;;;32.80;21.85;;;;;;;;;;5022376;28;20034;-80
2021/12/14 07:48:05;;;;;;;30.20;20.80;;;;;;;;;;5022285;28;20072;-81
2021/12/14 07:51:04;;;;;;;32.97;21.55;;;;;;;;;;5027306;28;20053;-81
2021/12/14 07:53:31;;;;;;;34.33;21.15;;;;;;;;;;5001137;28;20064;-78
2021/12/14 07:55:57;;;;;;;31.45;21.42;;;;;;;;;;5022623;28;20045;-80
2021/12/14 07:58:30;;;;;;;28.90;21.50;;;;;;;;;;5028901;28;20502;-80
2021/12/14 08:00:56;;;;;;;33.70;22.92;;;;;;;;;;5034735;28;20049;-79
2021/12/14 08:03:29;;;;;;;33.80;22.77;;;;;;;;;;5028765;28;20030;-79
2021/12/14 08:05:55;;;;;;;36.05;21.80;;;;;;;;;;5026863;28;20041;-82
2021/12/14 08:08:40;;;;;;;39.40;22.00;;;;;;;;;;5026962;28;20038;-83
2021/12/14 08:11:27;;;;;;;36.33;24.08;;;;;;;;;;5031041;28;20112;-84
2021/12/14 08:13:54;;;;;;;35.58;22.98;;;;;;;;;;5027804;28;20113;-83
2021/12/14 08:16:20;;;;;;;35.25;23.33;;;;;;;;;;5028052;28;20041;-83
2021/12/14 08:18:46;;;;;;;37.40;23.98;;;;;;;;;;5029102;28;20173;-83
2021/12/14 08:21:15;;;;;;;36.95;24.23;;;;;;;;;;5027523;28;20053;-82
2021/12/14 08:23:42;;;;;;;36.58;23.88;;;;;;;;;;5027718;28;20053;-81
2021/12/14 08:26:09;;;;;;;38.20;23.70;;;;;;;;;;5027215;28;20034;-83
2021/12/14 08:28:54;;;;;;;40.22;25.20;;;;;;;;;;5026562;28;20033;-83
2021/12/14 08:31:22;;;;;;;36.63;24.92;;;;;;;;;;5028536;28;20057;-83
2021/12/14 08:33:55;;;;;;;38.28;25.35;;;;;;;;;;5026923;28;20041;-82
2021/12/14 08:36:21;;;;;;;;;;;;;;;;;;5028374;28;20061;-81
2021/12/14 08:38:47;;;;;;;36.67;24.48;;;;;;;;;;5026485;28;19917;-83
2021/12/14 08:41:21;;;;;;;44.63;24.65;;;;;;;;;;5026569;28;20071;-83
2021/12/14 08:43:50;;;;;;;36.88;24.70;;;;;;;;;;5026855;28;20038;-81
2021/12/14 08:46:36;;;;;;;45.67;25.73;;;;;;;;;;5025767;28;20046;-84
2021/12/14 08:49:03;;;;;;;35.03;23.67;;;;;;;;;;5027595;28;20073;-82
2021/12/14 08:51:31;;;;;;;42.95;24.60;;;;;;;;;;5026495;28;20037;-81
2021/12/14 08:54:21;;;;;;;40.13;25.23;;;;;;;;;;5025726;28;20052;-82
2021/12/14 08:56:56;;;;;;;38.60;24.52;;;;;;;;;;5027380;28;20041;-82
2021/12/14 08:59:22;;;;;;;38.58;25.40;;;;;;;;;;5026319;28;20049;-82
2021/12/14 09:01:48;;;;;;;37.15;25.05;;;;;;;;;;5027040;28;20051;-82
2021/12/14 09:04:16;;;;;;;40.08;26.70;;;;;;;;;;5027053;28;20056;-82
2021/12/14 09:06:43;;;;;;;35.65;25.17;;;;;;;;;;5026341;28;20038;-81
2021/12/14 09:09:13;;;;;;;40.03;25.88;;;;;;;;;;5027378;28;20041;-82
2021/12/14 09:11:40;;;;;;;36.58;26.20;;;;;;;;;;5030544;28;20042;-82
2021/12/14 09:14:09;;;;;;;37.47;25.83;;;;;;;;;;5028414;28;20034;-81
2021/12/14 09:16:35;;;;;;;46.83;27.20;;;;;;;;;;5029670;28;20054;-83
2021/12/14 09:19:27;;;;;;;41.45;26.83;;;;;;;;;;5027438;28;20034;-84
2021/12/14 09:21:55;;;;;;;37.63;26.02;;;;;;;;;;5010825;28;20042;-83
2021/12/14 09:24:21;;;;;;;37.05;26.58;;;;;;;;;;5029640;28;20121;-81
2021/12/14 09:26:49;;;;;;;37.78;25.35;;;;;;;;;;5026660;28;20114;-82
2021/12/14 09:29:16;;;;;;;39.03;25.85;;;;;;;;;;5028742;28;20053;-80
2021/12/14 09:31:42;;;;;;;39.13;26.10;;;;;;;;;;5033393;28;20082;-82
2021/12/14 09:34:09;;;;;;;35.97;25.17;;;;;;;;;;5024746;28;20046;-82
2021/12/14 09:36:36;;;;;;;38.35;26.15;;;;;;;;;;5023699;28;20057;-82
2021/12/14 09:39:13;;;;;;;36.00;25.38;;;;;;;;;;5024072;28;20390;-82
2021/12/14 09:41:39;;;;;;;37.78;24.98;;;;;;;;;;5023672;28;20046;-82
2021/12/14 09:44:06;;;;;;;38.75;25.30;;;;;;;;;;5022194;28;20042;-82
2021/12/14 09:46:33;;;;;;;36.03;26.00;;;;;;;;;;5022409;28;20064;-81
2021/12/14 09:49:00;;;;;;;34.50;25.02;;;;;;;;;;5022431;28;20112;-81
2021/12/14 09:51:28;;;;;;;36.05;25.10;;;;;;;;;;5021462;28;20402;-82
2021/12/14 09:53:55;;;;;;;38.72;26.77;;;;;;;;;;5021967;28;20045;-80
2021/12/14 09:56:21;;;;;;;37.35;25.73;;;;;;;;;;5021137;28;20044;-81
2021/12/14 09:58:49;;;;;;;43.30;26.90;;;;;;;;;;5022403;28;20057;-81
2021/12/14 10:01:15;;;;;;;38.15;26.23;;;;;;;;;;5020485;28;20061;-81
2021/12/14 10:03:41;;;;;;;37.67;25.80;;;;;;;;;;5020815;28;20048;-80
2021/12/14 10:06:08;;;;;;;38.38;24.65;;;;;;;;;;5020700;28;20121;-82
2021/12/14 10:08:41;;;;;;;35.60;26.52;;;;;;;;;;5022449;28;20037;-82
2021/12/14 10:11:11;;;;;;;39.73;26.40;;;;;;;;;;5021612;28;20061;-82
2021/12/14 10:13:38;;;;;;;36.70;25.67;;;;;;;;;;5022515;28;20488;-81
2021/12/14 10:16:05;;;;;;;36.65;25.58;;;;;;;;;;5021370;28;20042;-82
2021/12/14 10:18:35;;;;;;;36.60;26.67;;;;;;;;;;5021869;28;20045;-82
2021/12/14 10:21:01;;;;;;;36.30;25.65;;;;;;;;;;5024997;28;20133;-81
2021/12/14 10:23:27;;;;;;;37.58;25.13;;;;;;;;;;5022790;28;20041;-81
2021/12/14 10:25:55;;;;;;;37.33;24.75;;;;;;;;;;5020697;28;20042;-80
2021/12/14 10:28:23;;;;;;;39.85;25.98;;;;;;;;;;5020385;28;20042;-81
2021/12/14 10:30:59;;;;;;;34.58;24.90;;;;;;;;;;5020557;28;20462;-82
2021/12/14 10:33:26;;;;;;;34.30;24.17;;;;;;;;;;5020912;28;20042;-82
2021/12/14 10:35:55;;;;;;;36.72;25.52;;;;;;;;;;5021441;28;20045;-81
2021/12/14 10:38:37;;;;;;;40.72;26.70;;;;;;;;;;5021175;28;20172;-82
2021/12/14 10:43:54;;;;;;;34.40;25.13;;;;;;;;;;5021826;28;20061;-82
2021/12/14 10:46:25;;;;;;;35.80;25.30;;;;;;;;;;5021746;28;20044;-82
2021/12/14 10:48:51;;;;;;;40.85;25.45;;;;;;;;;;5022292;28;20041;-81
2021/12/14 10:51:17;;;;;;;34.67;23.92;;;;;;;;;;5022177;28;20061;-81
2021/12/14 10:53:47;;;;;;;37.15;24.60;;;;;;;;;;5021320;28;20073;-81
2021/12/14 10:56:14;;;;;;;35.28;24.27;;;;;;;;;;5020973;28;20117;-82
2021/12/14 10:58:40;;;;;;;34.08;24.30;;;;;;;;;;5021344;28;20046;-82
2021/12/14 11:01:17;;;;;;;37.03;23.60;;;;;;;;;;5021508;28;20048;-82
2021/12/14 11:03:46;;;;;;;31.95;23.85;;;;;;;;;;5022724;28;20092;-81
2021/12/14 11:06:13;;;;;;;37.47;23.90;;;;;;;;;;5024544;28;20037;-80
2021/12/14 11:11:34;;;;;;;33.10;23.48;;;;;;;;;;5021690;28;20049;-81
2021/12/14 11:14:02;;;;;;;32.13;23.48;;;;;;;;;;5021632;28;20034;-82
2021/12/14 11:19:30;;;;;;;31.45;22.75;;;;;;;;;;5025216;28;20045;-81
2021/12/14 11:22:08;;;;;;;34.78;24.25;;;;;;;;;;5025429;28;20140;-80
2021/12/14 11:24:34;;;;;;;36.92;24.73;;;;;;;;;;5024177;28;20033;-80
2021/12/14 11:27:00;;;;;;;38.30;26.15;;;;;;;;;;5029303;28;20046;-80
2021/12/14 11:29:26;;;;;;;43.58;27.05;;;;;;;;;;5024469;28;20111;-81
2021/12/14 11:31:54;;;;;;;38.80;26.80;;;;;;;;;;5025352;28;20056;-81
2021/12/14 11:34:35;;;;;;;37.97;26.65;;;;;;;;;;5025697;28;20030;-81
2021/12/14 11:37:04;;;;;;;39.38;26.67;;;;;;;;;;5025501;28;20038;-81
2021/12/14 11:39:32;;;;;;;43.42;27.42;;;;;;;;;;5025687;28;20061;-81
2021/12/14 11:42:07;;;;;;;40.17;27.08;;;;;;;;;;5025153;28;20085;-81
2021/12/14 11:44:37;;;;;;;43.92;27.52;;;;;;;;;;5026937;28;20038;-80
2021/12/14 11:47:06;;;;;;;45.15;28.67;;;;;;;;;;5034445;28;20034;-82
2021/12/14 11:49:43;;;;;;;41.95;27.83;;;;;;;;;;5037725;28;20048;-79
2021/12/14 11:52:10;;;;;;;41.85;27.67;;;;;;;;;;5033824;28;20037;-82
2021/12/14 11:54:43;;;;;;;37.72;26.63;;;;;;;;;;5031699;28;20053;-82
2021/12/14 11:57:09;;;;;;;;;;;;;;;;;;5025032;28;20098;-80
2021/12/14 11:59:35;;;;;;;42.50;28.02;;;;;;;;;;5025465;28;19956;-82
2021/12/14 12:02:01;;;;;;;44.15;28.73;;;;;;;;;;5026067;28;20034;-82
2021/12/14 12:04:34;;;;;;;40.90;28.48;;;;;;;;;;5027265;28;20077;-82
2021/12/14 12:09:32;;;;;;;42.25;27.98;;;;;;;;;;5028068;28;19920;-84
2021/12/14 12:12:04;;;;;;;41.90;28.08;;;;;;;;;;5029299;28;20093;-83
2021/12/14 12:14:32;;;;;;;46.00;29.73;;;;;;;;;;5033442;28;20037;-83
2021/12/14 12:17:00;;;;;;;44.38;27.95;;;;;;;;;;5033429;28;20034;-81
2021/12/14 12:19:27;;;;;;;41.53;27.77;;;;;;;;;;5032037;28;20492;-81
2021/12/14 12:21:53;;;;;;;46.83;27.85;;;;;;;;;;5035782;28;20061;-83
2021/12/14 12:24:36;;;;;;;37.75;27.33;;;;;;;;;;5025912;28;20042;-80
2021/12/14 12:27:15;;;;;;;43.22;28.17;;;;;;;;;;5022209;28;20133;-81
2021/12/14 12:29:42;;;;;;;39.83;26.85;;;;;;;;;;5024343;28;20117;-81
2021/12/14 12:32:17;;;;;;;38.42;28.05;;;;;;;;;;5027988;28;20038;-81
2021/12/14 12:34:48;;;;;;;39.95;27.92;;;;;;;;;;5024589;28;20048;-81
2021/12/14 12:37:33;;;;;;;45.42;27.77;;;;;;;;;;5024937;28;20098;-80
2021/12/14 12:39:59;;;;;;;38.33;28.17;;;;;;;;;;5025281;28;20101;-80
2021/12/14 12:42:25;;;;;;;45.13;27.48;;;;;;;;;;5023193;28;20080;-81
2021/12/14 12:44:51;;;;;;;45.13;28.77;;;;;;;;;;5024368;28;20034;-82
2021/12/14 12:47:21;;;;;;;41.13;27.77;;;;;;;;;;5024555;28;20042;-81
2021/12/14 12:49:47;;;;;;;38.40;28.20;;;;;;;;;;5023394;28;20054;-82
2021/12/14 12:52:13;;;;;;;43.53;28.23;;;;;;;;;;5022771;28;20053;-82
2021/12/14 12:54:58;;;;;;;43.55;28.55;;;;;;;;;;5023401;28;20046;-82
2021/12/14 12:57:54;;;;;;;38.28;27.77;;;;;;;;;;5022836;28;20053;-81
2021/12/14 13:00:21;;;;;;;41.50;28.20;;;;;;;;;;5022430;28;20038;-81
2021/12/14 13:02:53;;;;;;;42.30;28.20;;;;;;;;;;5023916;28;20427;-82
2021/12/14 13:05:22;;;;;;;43.70;27.73;;;;;;;;;;5023222;28;20049;-82
2021/12/14 13:08:08;;;;;;;37.50;27.20;;;;;;;;;;5035863;28;20046;-82
2021/12/14 13:10:36;;;;;;;42.70;27.05;;;;;;;;;;5033389;28;20049;-82
2021/12/14 13:13:11;;;;;;;42.33;28.42;;;;;;;;;;5022617;28;20042;-82
2021/12/14 13:15:43;;;;;;;40.75;28.98;;;;;;;;;;5023969;28;20057;-81
2021/12/14 13:18:17;;;;;;;38.70;28.43;;;;;;;;;;5022850;28;20042;-81
2021/12/14 13:20:43;;;;;;;39.70;29.38;;;;;;;;;;5023954;28;20100;-82
2021/12/14 13:23:09;;;;;;;41.90;29.10;;;;;;;;;;5023669;28;20448;-82
2021/12/14 13:25:36;;;;;;;44.15;29.80;;;;;;;;;;5023724;28;20033;-82
2021/12/14 13:28:02;;;;;;;40.63;29.33;;;;;;;;;;5026651;28;20041;-82
2021/12/14 13:30:28;;;;;;;47.10;29.67;;;;;;;;;;5022774;28;20453;-82
2021/12/14 13:32:54;;;;;;;39.65;27.58;;;;;;;;;;5023417;28;20041;-81
2021/12/14 13:35:22;;;;;;;47.65;29.02;;;;;;;;;;5024174;28;20037;-80
2021/12/14 13:37:51;;;;;;;42.67;28.35;;;;;;;;;;5028787;28;20068;-82
2021/12/14 13:40:37;;;;;;;44.20;28.88;;;;;;;;;;5021308;28;20046;-81
2021/12/14 13:43:12;;;;;;;50.35;30.35;;;;;;;;;;5023196;28;20040;-83
2021/12/14 13:45:44;;;;;;;41.78;28.35;;;;;;;;;;5024987;28;20030;-80
2021/12/14 13:48:10;;;;;;;41.22;28.25;;;;;;;;;;5024969;28;20042;-81
2021/12/14 13:50:38;;;;;;;44.33;29.45;;;;;;;;;;5024268;28;20259;-82
2021/12/14 13:53:04;;;;;;;43.20;28.73;;;;;;;;;;5024861;28;20042;-80
2021/12/14 13:55:32;;;;;;;46.67;28.88;;;;;;;;;;5032455;28;20081;-81
2021/12/14 13:57:58;;;;;;;43.08;28.80;;;;;;;;;;5038020;28;20045;-81
2021/12/14 14:00:27;;;;;;;38.90;27.02;;;;;;;;;;5023739;28;20038;-83
2021/12/14 14:02:53;;;;;;;42.33;28.42;;;;;;;;;;5021385;28;20116;-82
2021/12/14 14:05:19;;;;;;;39.55;28.02;;;;;;;;;;5021044;28;20053;-82
2021/12/14 14:07:46;;;;;;;41.63;28.25;;;;;;;;;;5019771;28;20034;-83
2021/12/14 14:10:12;;;;;;;43.75;29.80;;;;;;;;;;5021348;28;20061;-82
2021/12/14 14:12:47;;;;;;;44.33;29.60;;;;;;;;;;5020927;28;20057;-81
2021/12/14 14:15:14;;;;;;;44.50;29.63;;;;;;;;;;5020868;28;20438;-82
2021/12/14 14:17:46;;;;;;;45.45;29.98;;;;;;;;;;5019857;28;20178;-81
2021/12/14 14:20:14;;;;;;;44.70;29.92;;;;;;;;;;5019631;28;20053;-82
2021/12/14 14:22:40;;;;;;;43.10;29.85;;;;;;;;;;5021835;28;20103;-81
2021/12/14 14:25:08;;;;;;;43.97;29.17;;;;;;;;;;5021611;28;20042;-80
2021/12/14 14:27:34;;;;;;;45.67;29.77;;;;;;;;;;5019850;28;20045;-81
2021/12/14 14:30:00;;;;;;;44.22;29.52;;;;;;;;;;5023723;28;20072;-83
2021/12/14 14:32:36;;;;;;;41.65;29.70;;;;;;;;;;5018172;28;20033;-81
2021/12/14 14:35:02;;;;;;;45.40;31.00;;;;;;;;;;5020469;28;20076;-82
2021/12/14 14:37:29;;;;;;;50.75;29.13;;;;;;;;;;5019264;28;20034;-82
2021/12/14 14:40:04;;;;;;;48.22;30.55;;;;;;;;;;5018385;28;20057;-84
2021/12/14 14:42:31;;;;;;;46.25;29.50;;;;;;;;;;5027335;28;20113;-80
2021/12/14 14:44:58;;;;;;;43.22;28.92;;;;;;;;;;5032136;28;20038;-79
2021/12/14 14:47:31;;;;;;;48.95;29.33;;;;;;;;;;5034552;28;20112;-82
2021/12/14 14:49:57;;;;;;;52.45;29.50;;;;;;;;;;5019246;28;20129;-81
2021/12/14 14:52:28;;;;;;;47.85;30.63;;;;;;;;;;5022605;28;20076;-81
2021/12/14 14:54:55;;;;;;;44.38;29.63;;;;;;;;;;5022549;28;20050;-82
2021/12/14 14:57:21;;;;;;;46.75;29.67;;;;;;;;;;5023296;28;20823;-80
2021/12/14 14:59:57;;;;;;;44.85;28.02;;;;;;;;;;5022822;28;20046;-82
2021/12/14 15:02:37;;;;;;;44.35;28.70;;;;;;;;;;5022469;28;20113;-82
2021/12/14 15:05:11;;;;;;;48.28;28.80;;;;;;;;;;5023468;28;20093;-82
2021/12/14 15:07:51;;;;;;;45.70;28.73;;;;;;;;;;5023438;28;20045;-82
2021/12/14 15:10:17;;;;;;;50.17;30.38;;;;;;;;;;5024343;28;20048;-82
2021/12/14 15:12:43;;;;;;;47.78;30.40;;;;;;;;;;5023434;28;20097;-82
2021/12/14 15:15:10;;;;;;;49.40;30.35;;;;;;;;;;5023990;28;20409;-82
2021/12/14 15:17:43;;;;;;;46.10;30.02;;;;;;;;;;5022923;28;20061;-81
2021/12/14 15:20:09;;;;;;;41.58;30.10;;;;;;;;;;5022848;28;20100;-81